Weather reports worldwide

Advertisment
Faaroesund-ar, Sweden (2587): temperature & dewpoint: 07.12.2019 05:00:00 - 13.12.2019 05:00:00 (CET)Faaroesund-ar, Sweden (2587): wind speed & gusts: 07.12.2019 05:00:00 - 13.12.2019 05:00:00 (CET)Faaroesund-ar, Sweden (2587): wind direction: 07.12.2019 05:00:00 - 13.12.2019 05:00:00 (CET)Faaroesund-ar, Sweden (2587): visibility: 07.12.2019 05:00:00 - 13.12.2019 05:00:00 (CET)Faaroesund-ar, Sweden (2587): precipitation: 07.12.2019 05:00:00 - 13.12.2019 05:00:00 (CET)
Date & Time tt [°C] td [°C] ff [km/h] ff [kn] fx [km/h] fx [kn] dd vv [km] rr [mm]
13.12.2019 05:00:00 4,0 2,3 14 8 22 12 S 45 0,0
13.12.2019 04:00:00 4,1 2,9 11 6 20 11 S 50 0,0
13.12.2019 03:00:00 3,8 2,8 9 5 20 11 S 50 0,0
13.12.2019 02:00:00 3,4 2,5 12 7 20 11 S 46 0,0
13.12.2019 01:00:00 3,4 2,4 11 6 24 13 SSW 32 0,0
13.12.2019 00:00:00 3,7 2,5 15 8 27 14 SSW 27 0,0
12.12.2019 23:00:00 3,6 2,6 14 8 24 13 S 18 0,0
12.12.2019 22:00:00 2,9 1,9 11 6 31 17 S 8 0,1
12.12.2019 21:00:00 3,0 0,2 14 7 24 13 S 14 0,0
12.12.2019 20:00:00 2,6 -1,0 13 7 26 14 S 14 0,0
12.12.2019 19:00:00 2,7 -1,3 14 8 25 14 S 14 0,0
12.12.2019 18:00:00 3,1 -1,1 14 8 38 21 S 18 0,0
12.12.2019 17:00:00 3,2 -1,0 19 10 30 16 SSE 33 0,0
12.12.2019 16:00:00 3,0 -1,9 19 10 33 18 SSE 44 0,0
12.12.2019 15:00:00 2,8 -1,7 19 10 34 18 SSE 42 0,0
12.12.2019 14:00:00 2,7 -1,8 22 12 42 23 SSE 41 0,0
12.12.2019 13:00:00 2,8 -2,7 23 12 42 23 SSE 41 0,0
12.12.2019 12:00:00 3,0 -1,2 28 15 50 27 SSE 31 0,0
12.12.2019 11:00:00 3,0 -0,5 27 15 48 26 SSE 21 0,0
12.12.2019 10:00:00 3,3 -1,1 21 11 49 26 S 20 0,0
12.12.2019 09:00:00 3,4 -0,4 24 13 45 25 S 18 0,0
12.12.2019 08:00:00 3,4 -0,1 21 11 41 22 S 25 0,0
12.12.2019 07:00:00 3,3 0,4 21 11 40 21 S 20 0,0
12.12.2019 06:00:00 3,5 1,5 15 8 32 17 S 13 0,0
12.12.2019 05:00:00 3,3 1,5 16 9 28 15 S 13 0,0
12.12.2019 04:00:00 2,9 1,4 15 8 29 16 S 14 0,0
12.12.2019 03:00:00 3,2 1,9 17 9 31 17 S 13 0,0
12.12.2019 02:00:00 3,3 2,3 20 11 36 20 S 13 0,0
12.12.2019 01:00:00 3,1 2,2 20 11 37 20 S 14 0,2
12.12.2019 00:00:00 3,5 2,6 20 11 36 19 S 9 0,4
11.12.2019 23:00:00 3,7 3,0 17 9 35 19 S 10 0,5
11.12.2019 22:00:00 3,8 2,9 16 9 34 18 S 13 0,3
11.12.2019 21:00:00 3,9 3,2 17 9 32 18 S 23 0,3
11.12.2019 20:00:00 4,0 3,1 21 11 36 19 S 16 0,5
11.12.2019 19:00:00 4,2 3,5 17 9 27 15 S 18 0,2
11.12.2019 18:00:00 4,3 3,6 16 9 29 16 S 16 0,1
11.12.2019 17:00:00 4,4 3,5 16 8 30 16 S 12 0,1
11.12.2019 16:00:00 4,4 3,4 16 9 31 17 S 15 0,1
11.12.2019 15:00:00 4,4 3,4 20 11 35 19 S 15 0,1
11.12.2019 14:00:00 4,5 2,8 24 13 40 21 S 18 0,0
11.12.2019 13:00:00 4,2 2,5 23 12 44 24 S 13 0,1
11.12.2019 12:00:00 4,5 1,7 28 15 53 29 S 14 0,0
11.12.2019 11:00:00 4,6 1,3 30 16 60 32 S 24 0,0
11.12.2019 10:00:00 4,5 1,4 32 18 54 29 S 20 0,0
11.12.2019 09:00:00 4,6 1,4 31 17 52 28 S 16 0,0
11.12.2019 08:00:00 4,6 1,1 31 17 61 33 S 23 0,0
11.12.2019 07:00:00 4,4 0,9 30 16 58 32 S 42 0,0
11.12.2019 06:00:00 4,1 0,6 29 16 54 29 S 48 0,0
11.12.2019 05:00:00 3,9 -0,3 29 16 50 27 S 50 0,0
11.12.2019 04:00:00 3,3 -2,0 26 14 48 26 S 50 0,0
11.12.2019 03:00:00 2,6 -1,4 23 12 39 21 S 50 0,0
11.12.2019 02:00:00 1,6 -1,0 20 11 38 20 S 50 0,0
11.12.2019 01:00:00 0,6 -1,0 15 8 23 13 S 50 0,0
11.12.2019 00:00:00 -0,8 -2,4 11 6 28 15 S 50 0,0
10.12.2019 23:00:00 -0,8 -2,7 13 7 23 13 S 50 0,0
10.12.2019 22:00:00 -1,2 -2,9 12 7 19 10 S 50 0,0
10.12.2019 21:00:00 -1,2 -2,6 9 5 14 8 S 50 0,0
10.12.2019 20:00:00 -1,4 -2,5 10 6 16 9 S 50 0,0
10.12.2019 19:00:00 -1,0 -2,6 9 5 15 8 S 50 0,0
10.12.2019 18:00:00 0,9 -2,2 11 6 26 14 W 50 0,0
10.12.2019 17:00:00 2,0 -1,6 20 11 30 16 WNW 50 0,0
10.12.2019 16:00:00 2,0 -1,3 23 12 30 16 WNW 50 0,0
10.12.2019 15:00:00 1,9 -1,0 24 13 34 18 NW 50 0,0
10.12.2019 14:00:00 1,8 -1,5 24 13 34 19 NW 50 0,0
10.12.2019 13:00:00 2,0 -1,3 30 16 44 24 NW 50 0,0
10.12.2019 12:00:00 1,8 -1,5 31 17 44 24 NW 44 0,0
10.12.2019 11:00:00 1,8 -1,8 38 20 49 26 NW 49 0,0
10.12.2019 10:00:00 2,1 -2,0 39 21 51 28 NNW 50 0,0
10.12.2019 09:00:00 2,0 -1,4 40 22 57 31 NNW 44 0,0
10.12.2019 08:00:00 2,8 -1,0 38 20 64 35 N 48 0,0
10.12.2019 07:00:00 2,8 0,2 44 24 66 35 N 13 0,2
10.12.2019 06:00:00 2,3 0,8 48 26 67 36 N 7 0,2
10.12.2019 05:00:00 3,0 0,9 52 28 72 39 N 19 0,2
10.12.2019 04:00:00 3,0 1,5 57 31 77 42 N 9 0,6
10.12.2019 03:00:00 3,4 1,9 57 31 71 38 N 6 0,6
10.12.2019 02:00:00 4,4 3,2 15 8 24 13 SW 8 0,9
10.12.2019 01:00:00 4,7 2,7 9 5 18 10 SSW 24 0,0
10.12.2019 00:00:00 4,5 2,5 10 5 19 10 SSW 33 0,0
09.12.2019 23:00:00 5,0 3,2 11 6 26 14 SSW 47 0,0
09.12.2019 22:00:00 6,3 3,3 18 10 35 19 SW 37 0,0
09.12.2019 21:00:00 6,5 3,8 20 11 36 20 SW 26 0,0
09.12.2019 20:00:00 6,5 3,5 21 11 34 18 SSW 29 0,0
09.12.2019 19:00:00 6,1 3,3 21 11 38 21 SW 41 0,0
09.12.2019 18:00:00 6,4 3,2 22 12 38 21 SSW 30 0,0
09.12.2019 17:00:00 5,6 2,9 16 9 29 16 SSW 32 0,0
09.12.2019 16:00:00 5,7 2,5 16 9 32 17 SSW 41 0,0
09.12.2019 15:00:00 6,2 2,3 23 12 45 24 SW 34 0,0
09.12.2019 14:00:00 7,1 1,8 28 15 49 27 SW 35 0,0
09.12.2019 13:00:00 7,1 2,2 35 19 51 28 SW 38 0,0
09.12.2019 12:00:00 6,8 2,3 30 16 47 25 SW 35 0,0
09.12.2019 11:00:00 6,9 2,2 33 18 51 28 SW 43 0,0
09.12.2019 10:00:00 6,6 2,5 29 16 54 29 SW 41 0,0
09.12.2019 09:00:00 6,3 2,6 31 17 53 29 SW 38 0,0
09.12.2019 08:00:00 6,3 2,4 30 16 53 28 SW 42 0,0
09.12.2019 07:00:00 5,9 2,4 32 18 53 28 SW 46 0,0
09.12.2019 06:00:00 5,7 2,2 36 19 59 32 SW 43 0,0
09.12.2019 05:00:00 6,1 2,6 39 21 61 33 SW 36 0,0
09.12.2019 04:00:00 6,2 3,0 39 21 57 31 SW 36 0,0
09.12.2019 03:00:00 6,3 3,3 37 20 57 31 SW 50 0,0
09.12.2019 02:00:00 6,2 3,0 38 21 54 29 SW 41 0,0
09.12.2019 01:00:00 6,4 3,0 34 19 54 29 SW 34 0,0
09.12.2019 00:00:00 6,6 3,6 33 18 55 30 SW 32 0,0
08.12.2019 23:00:00 6,9 3,7 34 18 58 32 SW 40 0,0
08.12.2019 22:00:00 7,5 3,0 40 21 72 39 WSW 50 0,0
08.12.2019 21:00:00 8,1 4,9 41 22 61 33 WSW 50 0,0
08.12.2019 20:00:00 8,1 5,7 41 22 57 31 SW 50 0,0
08.12.2019 19:00:00 7,9 5,9 29 16 55 30 SW 50 0,0
08.12.2019 18:00:00 7,9 5,9 35 19 60 32 SW 50 0,0
08.12.2019 17:00:00 7,5 5,6 34 18 56 30 SSW 50 0,0
08.12.2019 16:00:00 7,1 5,7 32 17 55 30 SSW 50 0,6
08.12.2019 15:00:00 6,7 5,5 30 16 60 33 SSW 8 1,7
08.12.2019 14:00:00 6,5 5,3 28 15 50 27 SSW 9 1,5
08.12.2019 13:00:00 6,2 5,2 26 14 44 24 S 14 1,5
08.12.2019 12:00:00 5,4 4,7 20 11 37 20 S 13 0,8
08.12.2019 11:00:00 4,3 3,4 16 9 29 16 S 14 0,2
08.12.2019 10:00:00 3,6 2,3 19 10 29 16 SSW 16 0,0
08.12.2019 09:00:00 3,0 1,5 16 8 24 13 S 46 0,0
08.12.2019 08:00:00 2,9 1,1 15 8 28 15 SSW 46 0,0
08.12.2019 07:00:00 2,5 -0,1 13 7 29 15 SSW 50 0,0
08.12.2019 06:00:00 2,4 -0,4 18 10 30 16 SW 50 0,0
08.12.2019 05:00:00 3,0 -0,5 21 11 33 18 WSW 50 0,0
08.12.2019 04:00:00 3,1 -0,4 20 11 35 19 WSW 50 0,0
08.12.2019 03:00:00 3,8 0,3 25 13 37 20 W 50 0,0
08.12.2019 02:00:00 3,8 0,8 23 12 45 25 W 50 0,0
08.12.2019 01:00:00 4,1 0,3 35 19 51 28 W 50 0,0
08.12.2019 00:00:00 4,3 1,3 38 20 56 30 WNW 50 0,0
07.12.2019 23:00:00 4,3 1,3 48 26 59 32 WNW 50 0,0
07.12.2019 22:00:00 4,4 1,4 51 27 67 36 WNW 50 0,0
07.12.2019 21:00:00 4,6 1,8 49 26 65 35 WNW 50 0,0
07.12.2019 20:00:00 4,5 1,9 54 29 71 38 WNW 47 0,2
07.12.2019 19:00:00 4,6 2,1 56 31 76 41 WNW 45 0,2
07.12.2019 18:00:00 5,3 2,0 48 26 71 39 W 49 0,0
07.12.2019 17:00:00 5,3 3,1 49 26 66 36 WNW - -
07.12.2019 16:00:00 6,7 4,4 43 23 64 35 W 50 0,1
07.12.2019 15:00:00 8,0 6,0 30 16 48 26 WSW 50 0,0
07.12.2019 14:00:00 8,3 5,9 29 16 44 24 WSW 50 0,0
07.12.2019 13:00:00 8,3 5,8 27 14 42 23 WSW 50 0,0
07.12.2019 12:00:00 8,3 5,8 31 17 43 23 WSW 50 0,0
07.12.2019 11:00:00 8,0 5,6 26 14 46 25 SW 50 0,0
07.12.2019 10:00:00 7,8 5,6 27 15 40 21 SW 50 0,0
07.12.2019 09:00:00 7,4 5,7 23 13 41 22 SSW 50 0,0
07.12.2019 08:00:00 7,1 5,6 25 13 44 24 SW 50 0,0
07.12.2019 07:00:00 6,9 5,8 24 13 42 23 SW 26 0,0
07.12.2019 06:00:00 7,0 5,6 19 10 34 18 SSW 50 0,0
07.12.2019 05:00:00 6,9 5,5 23 12 38 20 SW 50 0,0

tt = temperature
td = dewpoint
ff = wind speed
fx = gusts
dd = wind direction
vv = visibility
rr = precipitation

Next stations